createdAt,value
2022-08-10T00:00:21.483Z,35.90
2022-08-10T00:02:23.191Z,36.00
2022-08-10T00:04:25.006Z,36.20
2022-08-10T00:06:27.052Z,36.10
2022-08-10T00:08:29.503Z,36.20
2022-08-10T00:10:31.197Z,36.00
2022-08-10T00:12:54.566Z,36.00
2022-08-10T00:14:54.699Z,36.10
2022-08-10T00:16:56.402Z,36.20
2022-08-10T00:18:58.097Z,36.30
2022-08-10T00:20:59.859Z,36.30
2022-08-10T00:23:01.551Z,36.60
2022-08-10T00:25:03.714Z,36.60
2022-08-10T00:27:52.551Z,36.60
2022-08-10T00:29:27.139Z,36.70
2022-08-10T00:31:28.861Z,36.80
2022-08-10T00:33:30.556Z,36.60
2022-08-10T00:35:32.268Z,36.50
2022-08-10T00:37:33.939Z,36.50
2022-08-10T00:39:36.386Z,36.80
2022-08-10T00:41:41.246Z,36.80
2022-08-10T00:43:42.931Z,36.90
2022-08-10T00:45:44.780Z,36.90
2022-08-10T00:48:01.658Z,37.10
2022-08-10T00:50:04.060Z,37.20
2022-08-10T00:52:05.946Z,37.00
2022-08-10T00:54:08.778Z,37.20
2022-08-10T00:57:12.302Z,37.40
2022-08-10T00:58:48.624Z,37.40
2022-08-10T01:00:50.498Z,37.20
2022-08-10T01:02:52.593Z,37.30
2022-08-10T01:04:59.307Z,37.00
2022-08-10T01:07:11.578Z,37.20
2022-08-10T01:09:20.044Z,37.40
2022-08-10T01:12:39.425Z,37.70
2022-08-10T01:14:01.856Z,37.60
2022-08-10T01:16:22.400Z,37.50
2022-08-10T01:18:27.399Z,37.60
2022-08-10T01:20:42.976Z,38.00
2022-08-10T01:22:53.876Z,37.90
2022-08-10T01:25:11.451Z,37.80
2022-08-10T01:27:27.472Z,38.00
2022-08-10T01:29:41.911Z,38.10
2022-08-10T01:31:45.384Z,37.70
2022-08-10T01:33:58.077Z,37.90
2022-08-10T01:36:07.417Z,38.00
2022-08-10T01:38:11.678Z,37.90
2022-08-10T01:40:14.186Z,38.10
2022-08-10T01:42:19.817Z,38.40
2022-08-10T01:44:30.357Z,38.10
2022-08-10T01:46:33.540Z,38.10
2022-08-10T01:48:55.726Z,38.20
2022-08-10T01:51:03.151Z,38.50
2022-08-10T01:53:09.426Z,38.60
2022-08-10T01:55:13.272Z,38.80
2022-08-10T01:57:16.601Z,38.70
2022-08-10T01:59:23.305Z,38.80
2022-08-10T02:01:29.879Z,38.80
2022-08-10T02:03:31.822Z,38.70
2022-08-10T02:05:34.613Z,38.90
2022-08-10T02:07:38.885Z,38.90
2022-08-10T02:09:45.265Z,39.10
2022-08-10T02:11:55.680Z,38.90
2022-08-10T02:14:08.886Z,38.90
2022-08-10T02:16:11.393Z,39.20
2022-08-10T02:18:13.507Z,39.10
2022-08-10T02:20:19.366Z,39.20
2022-08-10T02:22:37.401Z,39.00
2022-08-10T02:24:41.572Z,39.20
2022-08-10T02:26:43.993Z,39.20
2022-08-10T02:28:45.833Z,39.30
2022-08-10T02:30:48.873Z,39.30
2022-08-10T02:32:52.934Z,39.60
2022-08-10T02:34:55.565Z,39.50
2022-08-10T02:37:01.210Z,39.60
2022-08-10T02:39:04.712Z,39.80
2022-08-10T02:45:12.178Z,39.40
2022-08-10T02:45:25.918Z,39.10
2022-08-10T02:46:38.732Z,39.60
2022-08-10T02:48:45.939Z,39.50
2022-08-10T02:50:58.156Z,39.80
2022-08-10T02:53:56.331Z,39.80
2022-08-10T02:55:42.708Z,40.00
2022-08-10T02:58:14.579Z,39.80
2022-08-10T03:00:11.021Z,40.10
2022-08-10T03:02:15.374Z,39.90
2022-08-10T03:04:55.627Z,39.70
2022-08-10T03:07:02.360Z,39.90
2022-08-10T03:09:05.110Z,39.60
2022-08-10T03:11:07.783Z,40.20
2022-08-10T03:13:10.760Z,40.10
2022-08-10T03:15:15.809Z,40.30
2022-08-10T03:17:18.064Z,40.10
2022-08-10T03:20:33.825Z,40.00
2022-08-10T03:21:44.071Z,40.40
2022-08-10T03:23:51.716Z,40.60
2022-08-10T03:25:55.551Z,40.50
2022-08-10T03:27:57.889Z,40.40
2022-08-10T03:30:32.214Z,40.70
2022-08-10T03:32:23.244Z,40.50
2022-08-10T03:34:32.848Z,40.80
2022-08-10T03:36:40.527Z,40.70
2022-08-10T03:38:48.667Z,40.60
2022-08-10T03:40:50.458Z,40.60
2022-08-10T03:42:53.934Z,40.90
2022-08-10T03:44:56.188Z,40.80
2022-08-10T03:47:00.504Z,41.00
2022-08-10T03:49:04.049Z,41.00
2022-08-10T03:51:06.769Z,41.00
2022-08-10T03:53:08.983Z,40.90
2022-08-10T03:56:27.294Z,41.20
2022-08-10T03:57:49.571Z,41.30
2022-08-10T03:59:51.883Z,41.20
2022-08-10T04:02:45.242Z,41.20
2022-08-10T04:04:22.476Z,41.30
2022-08-10T04:06:25.231Z,41.30
2022-08-10T04:08:27.384Z,41.20
2022-08-10T04:10:29.264Z,41.30
2022-08-10T04:12:30.970Z,41.00
2022-08-10T04:14:38.597Z,41.40
2022-08-10T04:16:53.566Z,41.30
2022-08-10T04:18:55.290Z,41.10
2022-08-10T04:21:17.251Z,41.20
2022-08-10T04:23:19.994Z,41.20
2022-08-10T04:25:22.593Z,41.40
2022-08-10T04:27:24.375Z,41.40
2022-08-10T04:29:26.055Z,41.50
2022-08-10T04:31:28.123Z,41.40
2022-08-10T04:33:31.737Z,41.50
2022-08-10T04:35:34.565Z,41.30
2022-08-10T04:37:37.342Z,41.60
2022-08-10T04:39:48.972Z,41.40
2022-08-10T04:41:50.970Z,41.60
2022-08-10T04:43:52.639Z,41.30
2022-08-10T04:45:54.369Z,41.60
2022-08-10T04:48:03.201Z,41.50
2022-08-10T04:50:05.701Z,41.60
2022-08-10T04:52:07.350Z,41.40
2022-08-10T04:54:11.965Z,41.60
2022-08-10T04:56:15.880Z,41.90
2022-08-10T04:58:17.578Z,42.00
2022-08-10T05:00:19.451Z,41.70
2022-08-10T05:02:31.272Z,41.80
2022-08-10T05:04:35.904Z,42.10
2022-08-10T05:06:40.866Z,42.30
2022-08-10T05:08:42.549Z,42.00
2022-08-10T05:10:44.212Z,42.00
2022-08-10T05:12:46.971Z,42.30
2022-08-10T05:14:48.974Z,42.30
2022-08-10T05:16:50.639Z,42.30
2022-08-10T05:18:52.311Z,42.40
2022-08-10T05:20:54.055Z,42.40
2022-08-10T05:22:55.713Z,42.20
2022-08-10T05:24:57.404Z,42.30
2022-08-10T05:27:10.202Z,42.40
2022-08-10T05:29:12.317Z,42.70
2022-08-10T05:31:17.761Z,42.50
2022-08-10T05:33:25.530Z,42.80
2022-08-10T05:35:28.068Z,42.70
2022-08-10T05:38:10.295Z,42.60
2022-08-10T05:39:54.174Z,42.70
2022-08-10T05:41:55.994Z,42.70
2022-08-10T05:44:03.444Z,42.60
2022-08-10T05:46:17.102Z,42.70
2022-08-10T05:48:40.806Z,42.70
2022-08-10T05:50:44.296Z,43.00
2022-08-10T05:52:46.053Z,43.00
2022-08-10T05:54:48.373Z,42.90
2022-08-10T05:56:55.207Z,42.70
2022-08-10T05:59:01.342Z,42.70
2022-08-10T06:01:05.548Z,42.70
2022-08-10T06:03:08.279Z,43.00
2022-08-10T06:05:17.144Z,43.20
2022-08-10T06:07:21.791Z,43.10
2022-08-10T06:09:24.808Z,43.10
2022-08-10T06:12:26.291Z,43.10
2022-08-10T06:14:12.823Z,43.30
2022-08-10T06:16:16.026Z,43.10
2022-08-10T06:18:18.578Z,43.30
2022-08-10T06:20:20.759Z,43.20
2022-08-10T06:22:22.593Z,43.20
2022-08-10T06:24:27.480Z,43.40
2022-08-10T06:26:32.618Z,43.30
2022-08-10T06:28:37.677Z,43.20
2022-08-10T06:30:39.880Z,43.20
2022-08-10T06:32:41.963Z,43.00
2022-08-10T06:34:46.212Z,43.30
2022-08-10T06:36:48.135Z,43.10
2022-08-10T06:38:50.797Z,43.20
2022-08-10T06:40:54.752Z,43.20
2022-08-10T06:42:58.605Z,43.10
2022-08-10T06:45:02.826Z,42.90
2022-08-10T06:47:05.340Z,43.10
2022-08-10T06:49:07.851Z,42.80
2022-08-10T06:51:14.246Z,43.00
2022-08-10T06:53:17.752Z,42.90
2022-08-10T06:55:21.435Z,42.80
2022-08-10T06:57:42.589Z,42.90
2022-08-10T06:59:45.237Z,42.80
2022-08-10T07:01:50.898Z,42.80
2022-08-10T07:04:01.654Z,42.70
2022-08-10T07:06:04.550Z,42.60
2022-08-10T07:08:06.925Z,42.50
2022-08-10T07:10:09.230Z,42.30
2022-08-10T07:12:11.532Z,42.10
2022-08-10T07:14:18.224Z,42.80
2022-08-10T07:16:21.230Z,42.70
2022-08-10T07:18:24.003Z,42.10
2022-08-10T07:20:28.890Z,41.50
2022-08-10T07:23:50.807Z,41.70
2022-08-10T07:24:54.613Z,41.70
2022-08-10T07:26:57.304Z,41.70
2022-08-10T07:28:59.516Z,41.60
2022-08-10T07:31:01.914Z,41.40
2022-08-10T07:33:06.124Z,41.40
2022-08-10T07:35:08.597Z,41.40
2022-08-10T07:37:10.708Z,41.40
2022-08-10T07:39:13.534Z,41.30
2022-08-10T07:41:16.023Z,41.30
2022-08-10T07:43:21.799Z,41.30
2022-08-10T07:45:25.750Z,41.10
2022-08-10T07:47:53.285Z,41.00
2022-08-10T07:49:52.617Z,41.00
2022-08-10T07:51:56.255Z,41.10
2022-08-10T07:53:59.994Z,40.90
2022-08-10T07:56:13.276Z,40.90
2022-08-10T07:58:30.097Z,40.80
2022-08-10T08:00:32.783Z,40.70
2022-08-10T08:02:35.731Z,40.60
2022-08-10T08:04:38.247Z,40.60
2022-08-10T08:06:41.439Z,40.50
2022-08-10T08:08:44.039Z,40.50
2022-08-10T08:10:46.648Z,40.50
2022-08-10T08:12:49.168Z,40.40
2022-08-10T08:14:52.658Z,40.40
2022-08-10T08:16:55.635Z,40.40
2022-08-10T08:19:26.466Z,40.30
2022-08-10T08:24:09.031Z,40.10
2022-08-10T08:24:10.564Z,40.20
2022-08-10T08:26:03.892Z,40.10
2022-08-10T08:28:05.816Z,40.00
2022-08-10T08:30:08.983Z,40.00
2022-08-10T08:32:11.676Z,40.00
2022-08-10T08:34:13.559Z,40.00
2022-08-10T08:36:16.923Z,40.00
2022-08-10T08:38:29.852Z,40.00
2022-08-10T08:40:39.465Z,39.90
2022-08-10T08:42:59.929Z,39.90
2022-08-10T08:45:01.674Z,39.80
2022-08-10T08:47:18.823Z,39.80
2022-08-10T08:50:05.082Z,39.80
2022-08-10T08:52:17.669Z,39.80
2022-08-10T08:54:35.521Z,39.70
2022-08-10T08:56:48.180Z,39.60
2022-08-10T08:59:32.545Z,39.50
2022-08-10T09:01:40.408Z,40.20
2022-08-10T09:03:50.888Z,39.40
2022-08-10T09:05:58.366Z,39.40
2022-08-10T09:08:03.198Z,39.30
2022-08-10T09:10:08.223Z,39.30
2022-08-10T09:12:28.694Z,39.20
2022-08-10T09:14:45.533Z,39.10
2022-08-10T09:16:53.762Z,39.20
2022-08-10T09:18:55.496Z,39.00
2022-08-10T09:20:57.173Z,39.10
2022-08-10T09:23:07.682Z,39.10
2022-08-10T09:25:14.703Z,39.00
2022-08-10T09:27:19.295Z,38.90
2022-08-10T09:29:27.971Z,38.70
2022-08-10T09:31:33.683Z,38.20
2022-08-10T09:36:20.306Z,38.20
2022-08-10T09:36:32.972Z,38.40
2022-08-10T09:38:54.927Z,38.30
2022-08-10T09:41:07.527Z,38.50
2022-08-10T09:43:25.543Z,38.30
2022-08-10T09:45:28.069Z,38.00
2022-08-10T09:48:01.083Z,38.20
2022-08-10T09:49:56.355Z,38.20
2022-08-10T09:52:07.218Z,38.10
2022-08-10T09:54:29.967Z,38.10
2022-08-10T09:56:31.690Z,37.90
2022-08-10T09:58:36.608Z,37.90
2022-08-10T10:00:40.911Z,37.90
2022-08-10T10:03:01.523Z,37.20
2022-08-10T10:05:16.520Z,37.80
2022-08-10T10:07:26.743Z,37.60
2022-08-10T10:09:47.404Z,37.80
2022-08-10T10:12:09.787Z,37.30
2022-08-10T10:14:16.300Z,37.40
2022-08-10T10:16:17.976Z,37.40
2022-08-10T10:18:22.462Z,37.30
2022-08-10T10:20:28.300Z,37.40
2022-08-10T10:22:50.253Z,37.40
2022-08-10T10:25:19.615Z,37.50
2022-08-10T10:27:22.830Z,37.00
2022-08-10T10:29:56.466Z,38.00
2022-08-10T10:32:03.859Z,36.90
2022-08-10T10:34:17.579Z,36.40
2022-08-10T10:36:20.011Z,36.50
2022-08-10T10:38:24.532Z,36.80
2022-08-10T10:40:28.926Z,36.80
2022-08-10T10:42:44.935Z,36.50
2022-08-10T10:45:06.750Z,36.70
2022-08-10T10:47:11.961Z,36.50
2022-08-10T10:49:19.448Z,36.90
2022-08-10T10:51:37.116Z,36.80
2022-08-10T10:53:47.935Z,36.60
2022-08-10T10:56:15.054Z,36.60
2022-08-10T10:58:23.246Z,36.40
2022-08-10T11:00:29.893Z,35.90
2022-08-10T11:02:44.000Z,36.20
2022-08-10T11:04:51.088Z,36.60
2022-08-10T11:07:01.567Z,35.60
2022-08-10T11:09:08.128Z,35.90
2022-08-10T11:12:00.706Z,36.10
2022-08-10T11:14:24.714Z,36.00
2022-08-10T11:16:12.535Z,35.80
2022-08-10T11:18:49.635Z,35.70
2022-08-10T11:21:13.718Z,35.80
2022-08-10T11:23:17.944Z,35.40
2022-08-10T11:25:27.812Z,35.50
2022-08-10T11:27:37.530Z,35.20
2022-08-10T11:29:45.807Z,34.90
2022-08-10T11:31:58.237Z,35.50
2022-08-10T11:34:48.587Z,35.30
2022-08-10T11:36:40.824Z,34.90
2022-08-10T11:39:18.182Z,34.60
2022-08-10T11:42:08.736Z,34.70
2022-08-10T11:44:15.335Z,34.60
2022-08-10T11:46:28.775Z,34.90
2022-08-10T11:48:53.037Z,34.30
2022-08-10T11:50:56.416Z,34.30
2022-08-10T11:53:04.298Z,33.80
2022-08-10T11:55:12.422Z,34.20
2022-08-10T11:57:16.077Z,34.50
2022-08-10T11:59:37.926Z,34.50
2022-08-10T12:01:39.943Z,34.70
2022-08-10T12:03:42.731Z,34.50
2022-08-10T12:05:54.299Z,34.60
2022-08-10T12:08:54.905Z,34.40
2022-08-10T12:10:24.029Z,34.50
2022-08-10T12:12:28.911Z,34.50
2022-08-10T12:14:33.399Z,34.70
2022-08-10T12:16:38.104Z,34.10
2022-08-10T12:18:53.213Z,33.70
2022-08-10T12:20:57.523Z,33.90
2022-08-10T12:23:10.480Z,34.10
2022-08-10T12:25:18.165Z,32.80
2022-08-10T12:27:44.882Z,33.10
2022-08-10T12:29:49.449Z,33.30
2022-08-10T12:32:13.334Z,33.30
2022-08-10T12:34:31.097Z,33.40
2022-08-10T12:36:42.977Z,33.10
2022-08-10T12:39:03.297Z,32.60
2022-08-10T12:41:07.566Z,32.80
2022-08-10T12:44:07.258Z,31.90
2022-08-10T12:45:56.675Z,32.60
2022-08-10T12:48:08.680Z,32.10
2022-08-10T12:50:32.928Z,32.10
2022-08-10T12:52:44.243Z,31.80
2022-08-10T12:54:46.522Z,31.90
2022-08-10T12:56:57.246Z,32.10
2022-08-10T12:59:01.668Z,31.90
2022-08-10T13:01:21.394Z,32.30
2022-08-10T13:04:22.736Z,32.10
2022-08-10T13:06:02.085Z,31.80
2022-08-10T13:08:26.388Z,32.10
2022-08-10T13:10:29.238Z,31.40
2022-08-10T13:12:35.974Z,31.60
2022-08-10T13:15:00.019Z,31.70
2022-08-10T13:17:02.788Z,31.50
2022-08-10T13:19:05.658Z,31.60
2022-08-10T13:21:20.779Z,31.50
2022-08-10T13:23:28.225Z,31.20
2022-08-10T13:25:34.771Z,31.20
2022-08-10T13:28:00.590Z,30.90
2022-08-10T13:30:06.905Z,31.40
2022-08-10T13:32:12.201Z,30.60
2022-08-10T13:34:42.984Z,29.90
2022-08-10T13:36:48.452Z,30.40
2022-08-10T13:38:50.647Z,30.80
2022-08-10T13:40:52.987Z,30.70
2022-08-10T13:42:55.481Z,30.00
2022-08-10T13:44:58.063Z,30.40
2022-08-10T13:47:00.171Z,29.70
2022-08-10T13:49:03.172Z,30.00
2022-08-10T13:51:05.911Z,30.00
2022-08-10T13:53:14.857Z,30.20
2022-08-10T13:55:20.474Z,30.00
2022-08-10T13:57:25.120Z,29.80
2022-08-10T14:00:35.611Z,30.00
2022-08-10T14:01:51.309Z,30.00
2022-08-10T14:03:53.434Z,30.00
2022-08-10T14:05:56.311Z,29.90
2022-08-10T14:08:00.962Z,29.50
2022-08-10T14:10:07.650Z,29.80
2022-08-10T14:12:10.960Z,29.20
2022-08-10T14:14:17.653Z,29.30
2022-08-10T14:16:19.675Z,29.40
2022-08-10T14:18:22.340Z,29.30
2022-08-10T14:20:27.492Z,29.40
2022-08-10T14:22:34.534Z,29.30
2022-08-10T14:24:36.551Z,29.20
2022-08-10T14:26:40.519Z,29.10
2022-08-10T14:28:43.373Z,28.80
2022-08-10T14:30:46.347Z,29.20
2022-08-10T14:32:49.735Z,28.70
2022-08-10T14:36:16.314Z,28.90
2022-08-10T14:37:16.671Z,29.10
2022-08-10T14:39:38.431Z,29.00
2022-08-10T14:42:01.784Z,29.00
2022-08-10T14:44:06.834Z,29.00
2022-08-10T14:46:11.400Z,29.10
2022-08-10T14:48:23.458Z,29.20
2022-08-10T14:50:34.251Z,28.90
2022-08-10T14:52:39.142Z,29.00
2022-08-10T14:54:48.958Z,28.90
2022-08-10T14:56:52.756Z,28.90
2022-08-10T14:59:05.411Z,29.00
2022-08-10T15:01:09.529Z,29.40
2022-08-10T15:04:00.931Z,29.60
2022-08-10T15:05:39.850Z,29.70
2022-08-10T15:07:47.501Z,29.50
2022-08-10T15:10:03.923Z,29.60
2022-08-10T15:12:12.935Z,29.70
2022-08-10T15:14:42.791Z,29.70
2022-08-10T15:16:40.620Z,29.60
2022-08-10T15:18:58.272Z,29.60
2022-08-10T15:21:02.885Z,29.50
2022-08-10T15:23:30.500Z,29.10
2022-08-10T15:25:38.923Z,28.90
2022-08-10T15:27:54.772Z,28.90
2022-08-10T15:29:58.311Z,28.80
2022-08-10T15:32:19.081Z,28.80
2022-08-10T15:34:40.225Z,28.90
2022-08-10T15:37:39.753Z,28.70
2022-08-10T15:40:26.218Z,28.70
2022-08-10T15:42:08.578Z,28.50
2022-08-10T15:44:11.898Z,28.70
2022-08-10T15:46:22.603Z,29.10
2022-08-10T15:48:51.964Z,29.20
2022-08-10T15:50:59.243Z,28.90
2022-08-10T15:53:09.780Z,29.10
2022-08-10T15:55:43.571Z,29.20
2022-08-10T15:57:46.368Z,29.40
2022-08-10T15:59:55.175Z,28.90
2022-08-10T16:02:03.871Z,29.20
2022-08-10T16:04:31.761Z,28.90
2022-08-10T16:06:38.169Z,28.70
2022-08-10T16:08:55.982Z,28.90
2022-08-10T16:11:05.600Z,28.20
2022-08-10T16:13:59.281Z,28.60
2022-08-10T16:15:36.175Z,28.70
2022-08-10T16:17:55.568Z,28.60
2022-08-10T16:19:58.872Z,28.70
2022-08-10T16:22:36.680Z,28.70
2022-08-10T16:24:30.454Z,28.30
2022-08-10T16:26:36.581Z,28.60
2022-08-10T16:28:43.059Z,28.50
2022-08-10T16:30:46.587Z,28.60
2022-08-10T16:32:49.801Z,28.50
2022-08-10T16:34:52.967Z,28.90
2022-08-10T16:36:58.582Z,28.10
2022-08-10T16:39:00.880Z,28.20
2022-08-10T16:41:03.068Z,28.20
2022-08-10T16:43:07.673Z,28.00
2022-08-10T16:45:19.123Z,28.40
2022-08-10T16:47:42.097Z,28.00
2022-08-10T16:49:44.280Z,27.90
2022-08-10T16:51:48.141Z,27.40
2022-08-10T16:53:51.760Z,27.50
2022-08-10T16:55:59.790Z,27.40
2022-08-10T16:58:02.298Z,27.40
2022-08-10T17:00:05.117Z,27.40
2022-08-10T17:02:07.634Z,27.30
2022-08-10T17:04:10.437Z,26.90
2022-08-10T17:06:17.707Z,27.50
2022-08-10T17:08:20.397Z,27.60
2022-08-10T17:10:22.714Z,27.80
2022-08-10T17:12:26.997Z,27.40
2022-08-10T17:14:29.542Z,27.50
2022-08-10T17:16:37.115Z,27.50
2022-08-10T17:18:40.174Z,27.60
2022-08-10T17:20:42.097Z,27.70
2022-08-10T17:22:44.295Z,27.80
2022-08-10T17:25:04.603Z,27.70
2022-08-10T17:28:03.844Z,27.90
2022-08-10T17:29:57.817Z,27.90
2022-08-10T17:31:55.620Z,28.10
2022-08-10T17:34:03.179Z,27.90
2022-08-10T17:36:05.313Z,27.80
2022-08-10T17:38:16.435Z,28.00
2022-08-10T17:40:20.298Z,28.00
2022-08-10T17:42:22.541Z,28.00
2022-08-10T17:44:24.752Z,28.10
2022-08-10T17:46:27.588Z,28.50
2022-08-10T17:48:32.487Z,28.60
2022-08-10T17:50:35.711Z,28.70
2022-08-10T17:52:37.617Z,28.60
2022-08-10T17:54:44.280Z,28.40
2022-08-10T17:56:46.322Z,28.50
2022-08-10T17:58:50.045Z,28.60
2022-08-10T18:00:54.846Z,28.80
2022-08-10T18:02:57.902Z,28.80
2022-08-10T18:05:00.198Z,29.00
2022-08-10T18:07:02.432Z,29.00
2022-08-10T18:09:08.298Z,29.10
2022-08-10T18:11:11.953Z,29.20
2022-08-10T18:13:16.014Z,29.30
2022-08-10T18:15:22.259Z,29.30
2022-08-10T18:17:25.339Z,29.30
2022-08-10T18:19:29.761Z,29.50
2022-08-10T18:21:32.274Z,29.50
2022-08-10T18:23:35.998Z,29.40
2022-08-10T18:25:39.448Z,29.60
2022-08-10T18:28:01.383Z,29.70
2022-08-10T18:30:06.800Z,29.70
2022-08-10T18:32:08.832Z,29.80
2022-08-10T18:34:12.952Z,29.90
2022-08-10T18:36:16.740Z,29.90
2022-08-10T18:38:18.933Z,30.00
2022-08-10T18:40:21.031Z,30.00
2022-08-10T18:42:44.533Z,30.10
2022-08-10T18:44:52.034Z,30.00
2022-08-10T18:46:53.729Z,30.10
2022-08-10T18:49:00.773Z,30.40
2022-08-10T18:51:06.133Z,30.50
2022-08-10T18:53:15.172Z,30.60
2022-08-10T18:55:46.421Z,30.50
2022-08-10T18:58:17.735Z,30.50
2022-08-10T19:00:20.061Z,30.70
2022-08-10T19:02:21.743Z,30.80
2022-08-10T19:04:31.104Z,30.70
2022-08-10T19:06:41.425Z,30.60
2022-08-10T19:08:49.106Z,30.60
2022-08-10T19:10:54.580Z,30.50
2022-08-10T19:13:06.418Z,30.70
2022-08-10T19:15:08.089Z,30.80
2022-08-10T19:17:18.836Z,30.90
2022-08-10T19:19:41.031Z,31.00
2022-08-10T19:21:48.875Z,31.20
2022-08-10T19:23:55.164Z,31.30
2022-08-10T19:26:42.325Z,31.50
2022-08-10T19:28:32.927Z,32.30
2022-08-10T19:30:45.529Z,31.60
2022-08-10T19:33:10.717Z,31.70
2022-08-10T19:35:12.440Z,31.80
2022-08-10T19:37:20.858Z,31.80
2022-08-10T19:39:50.894Z,31.80
2022-08-10T19:42:00.004Z,32.00
2022-08-10T19:44:26.244Z,32.30
2022-08-10T19:46:48.562Z,32.30
2022-08-10T19:48:59.924Z,32.40
2022-08-10T19:51:09.447Z,32.30
2022-08-10T19:53:24.873Z,32.30
2022-08-10T19:55:26.966Z,32.40
2022-08-10T19:57:37.394Z,32.40
2022-08-10T20:00:17.175Z,32.60
2022-08-10T20:02:00.999Z,32.80
2022-08-10T20:04:06.404Z,32.70
2022-08-10T20:06:26.929Z,32.90
2022-08-10T20:08:35.604Z,33.00
2022-08-10T20:10:43.209Z,33.20
2022-08-10T20:13:00.754Z,33.30
2022-08-10T20:15:21.009Z,33.10
2022-08-10T20:17:29.339Z,33.10
2022-08-10T20:20:04.381Z,33.30
2022-08-10T20:22:09.840Z,33.20
2022-08-10T20:24:12.554Z,33.30
2022-08-10T20:26:17.984Z,33.50
2022-08-10T20:28:25.874Z,33.50
2022-08-10T20:30:32.211Z,33.60
2022-08-10T20:32:41.764Z,33.90
2022-08-10T20:34:47.603Z,34.00
2022-08-10T20:37:02.569Z,33.60
2022-08-10T20:39:16.765Z,33.80
2022-08-10T20:41:43.881Z,34.00
2022-08-10T20:44:03.689Z,34.10
2022-08-10T20:46:11.014Z,33.90
2022-08-10T20:48:22.743Z,34.20
2022-08-10T20:50:25.119Z,34.30
2022-08-10T20:52:28.063Z,34.40
2022-08-10T20:54:34.937Z,34.30
2022-08-10T20:56:48.416Z,34.40
2022-08-10T20:58:50.108Z,34.40
2022-08-10T21:00:59.852Z,34.30
2022-08-10T21:03:07.132Z,34.20
2022-08-10T21:05:22.875Z,34.30
2022-08-10T21:07:50.528Z,34.50
2022-08-10T21:10:05.852Z,34.50
2022-08-10T21:12:07.685Z,34.60
2022-08-10T21:14:09.541Z,34.50
2022-08-10T21:16:14.137Z,34.60
2022-08-10T21:18:51.941Z,34.50
2022-08-10T21:21:08.131Z,34.70
2022-08-10T21:23:10.377Z,34.80
2022-08-10T21:25:16.768Z,34.60
2022-08-10T21:27:33.824Z,34.50
2022-08-10T21:29:55.935Z,34.60
2022-08-10T21:32:06.870Z,34.80
2022-08-10T21:34:18.992Z,34.80
2022-08-10T21:36:27.342Z,34.60
2022-08-10T21:38:37.198Z,34.60
2022-08-10T21:41:17.802Z,34.80
2022-08-10T21:43:51.767Z,34.70
2022-08-10T21:46:12.069Z,34.50
2022-08-10T21:48:57.715Z,34.70
2022-08-10T21:52:02.136Z,35.00
2022-08-10T21:54:11.284Z,34.90
2022-08-10T21:56:46.746Z,35.10
2022-08-10T21:59:18.689Z,35.20
2022-08-10T22:01:44.024Z,35.40
2022-08-10T22:04:05.235Z,35.50
2022-08-10T22:06:26.519Z,35.60
2022-08-10T22:08:54.633Z,36.10
2022-08-10T22:11:15.996Z,35.40
2022-08-10T22:13:36.499Z,35.40
2022-08-10T22:16:10.839Z,35.60
2022-08-10T22:18:33.122Z,35.40
2022-08-10T22:20:55.179Z,35.70
2022-08-10T22:23:28.065Z,35.30
2022-08-10T22:25:52.021Z,35.60
2022-08-10T22:28:18.124Z,35.80
2022-08-10T22:30:40.352Z,36.00
2022-08-10T22:33:03.668Z,35.70
2022-08-10T22:35:27.178Z,36.00
2022-08-10T22:37:53.514Z,36.00
2022-08-10T22:40:23.862Z,35.80
2022-08-10T22:42:59.513Z,36.00
2022-08-10T22:45:33.618Z,36.10
2022-08-10T22:47:54.064Z,35.90
2022-08-10T22:50:01.206Z,36.10
2022-08-10T22:52:12.211Z,36.20
2022-08-10T22:54:35.691Z,36.00
2022-08-10T22:56:56.812Z,36.20
2022-08-10T22:58:58.560Z,36.10
2022-08-10T23:01:13.035Z,36.30
2022-08-10T23:03:21.739Z,36.70
2022-08-10T23:05:31.034Z,36.70
2022-08-10T23:07:33.931Z,36.40
2022-08-10T23:09:36.774Z,36.30
2022-08-10T23:11:41.291Z,36.40
2022-08-10T23:13:44.305Z,36.30
2022-08-10T23:16:12.012Z,36.70
2022-08-10T23:18:35.127Z,36.80
2022-08-10T23:20:37.809Z,36.80
2022-08-10T23:22:47.447Z,36.80
2022-08-10T23:24:52.623Z,36.70
2022-08-10T23:26:55.000Z,36.70
2022-08-10T23:29:05.359Z,36.50
2022-08-10T23:31:14.584Z,36.70
2022-08-10T23:33:17.204Z,36.80
2022-08-10T23:36:29.455Z,36.90
2022-08-10T23:38:05.986Z,36.90
2022-08-10T23:40:13.028Z,37.20
2022-08-10T23:42:17.385Z,37.10
2022-08-10T23:44:20.969Z,37.20
2022-08-10T23:46:23.829Z,37.50
2022-08-10T23:48:27.291Z,37.20
2022-08-10T23:50:29.206Z,37.20
2022-08-10T23:52:33.123Z,37.30
2022-08-10T23:54:35.325Z,37.40
2022-08-10T23:56:38.286Z,37.20
2022-08-10T23:58:42.202Z,37.40
